sensor_id;sensor_type;location;lat;lon;timestamp;P1;durP1;ratioP1;P2;durP2;ratioP2
10957;SDS011;5531;42.570;23.676;2022-10-31T00:01:37;4.05;;;2.92;;
10957;SDS011;5531;42.570;23.676;2022-10-31T00:04:07;3.38;;;2.58;;
10957;SDS011;5531;42.570;23.676;2022-10-31T00:06:36;2.80;;;2.42;;
10957;SDS011;5531;42.570;23.676;2022-10-31T00:09:09;3.55;;;2.70;;
10957;SDS011;5531;42.570;23.676;2022-10-31T00:11:38;6.25;;;3.05;;
10957;SDS011;5531;42.570;23.676;2022-10-31T00:14:07;3.88;;;2.97;;
10957;SDS011;5531;42.570;23.676;2022-10-31T00:16:37;3.08;;;2.40;;
10957;SDS011;5531;42.570;23.676;2022-10-31T00:19:06;4.80;;;2.45;;
10957;SDS011;5531;42.570;23.676;2022-10-31T00:21:36;4.30;;;2.63;;
10957;SDS011;5531;42.570;23.676;2022-10-31T00:24:08;3.70;;;2.22;;
10957;SDS011;5531;42.570;23.676;2022-10-31T00:26:36;3.83;;;2.65;;
10957;SDS011;5531;42.570;23.676;2022-10-31T00:29:05;3.35;;;2.70;;
10957;SDS011;5531;42.570;23.676;2022-10-31T00:31:34;4.15;;;2.70;;
10957;SDS011;5531;42.570;23.676;2022-10-31T00:34:03;2.33;;;2.13;;
10957;SDS011;5531;42.570;23.676;2022-10-31T00:36:32;3.15;;;2.45;;
10957;SDS011;5531;42.570;23.676;2022-10-31T00:39:01;3.33;;;2.53;;
10957;SDS011;5531;42.570;23.676;2022-10-31T00:41:33;3.63;;;2.42;;
10957;SDS011;5531;42.570;23.676;2022-10-31T00:44:02;5.35;;;2.58;;
10957;SDS011;5531;42.570;23.676;2022-10-31T00:46:31;4.63;;;2.90;;
10957;SDS011;5531;42.570;23.676;2022-10-31T00:49:00;3.13;;;2.60;;
10957;SDS011;5531;42.570;23.676;2022-10-31T00:51:29;4.38;;;2.60;;
10957;SDS011;5531;42.570;23.676;2022-10-31T00:53:58;4.93;;;2.55;;
10957;SDS011;5531;42.570;23.676;2022-10-31T00:56:33;4.68;;;2.45;;
10957;SDS011;5531;42.570;23.676;2022-10-31T00:59:02;2.85;;;2.55;;
10957;SDS011;5531;42.570;23.676;2022-10-31T01:01:31;4.50;;;2.50;;
10957;SDS011;5531;42.570;23.676;2022-10-31T01:04:00;3.30;;;2.75;;
10957;SDS011;5531;42.570;23.676;2022-10-31T01:06:29;3.67;;;2.70;;
10957;SDS011;5531;42.570;23.676;2022-10-31T01:08:58;3.22;;;2.60;;
10957;SDS011;5531;42.570;23.676;2022-10-31T01:11:27;4.30;;;3.10;;
10957;SDS011;5531;42.570;23.676;2022-10-31T01:13:59;3.90;;;2.55;;
10957;SDS011;5531;42.570;23.676;2022-10-31T01:16:28;4.00;;;3.00;;
10957;SDS011;5531;42.570;23.676;2022-10-31T01:18:57;3.60;;;2.20;;
10957;SDS011;5531;42.570;23.676;2022-10-31T01:21:27;2.97;;;2.22;;
10957;SDS011;5531;42.570;23.676;2022-10-31T01:23:57;2.67;;;2.30;;
10957;SDS011;5531;42.570;23.676;2022-10-31T01:26:28;3.38;;;2.47;;
10957;SDS011;5531;42.570;23.676;2022-10-31T01:29:02;2.85;;;2.17;;
10957;SDS011;5531;42.570;23.676;2022-10-31T01:31:34;5.28;;;2.45;;
10957;SDS011;5531;42.570;23.676;2022-10-31T01:34:04;3.13;;;2.30;;
10957;SDS011;5531;42.570;23.676;2022-10-31T01:36:35;3.17;;;2.15;;
10957;SDS011;5531;42.570;23.676;2022-10-31T01:39:06;3.53;;;2.40;;
10957;SDS011;5531;42.570;23.676;2022-10-31T01:41:39;2.95;;;2.42;;
10957;SDS011;5531;42.570;23.676;2022-10-31T01:47:12;4.20;;;2.45;;
10957;SDS011;5531;42.570;23.676;2022-10-31T01:49:46;2.63;;;2.42;;
10957;SDS011;5531;42.570;23.676;2022-10-31T01:52:18;3.13;;;2.40;;
10957;SDS011;5531;42.570;23.676;2022-10-31T01:54:53;3.13;;;2.47;;
10957;SDS011;5531;42.570;23.676;2022-10-31T01:57:26;3.45;;;2.60;;
10957;SDS011;5531;42.570;23.676;2022-10-31T01:59:57;3.42;;;2.50;;
10957;SDS011;5531;42.570;23.676;2022-10-31T02:02:32;3.05;;;2.50;;
10957;SDS011;5531;42.570;23.676;2022-10-31T02:05:01;3.88;;;2.47;;
10957;SDS011;5531;42.570;23.676;2022-10-31T02:07:34;3.40;;;2.35;;
10957;SDS011;5531;42.570;23.676;2022-10-31T02:10:07;3.05;;;2.50;;
10957;SDS011;5531;42.570;23.676;2022-10-31T02:12:36;3.42;;;2.50;;
10957;SDS011;5531;42.570;23.676;2022-10-31T02:15:07;3.20;;;2.63;;
10957;SDS011;5531;42.570;23.676;2022-10-31T02:17:40;4.40;;;2.70;;
10957;SDS011;5531;42.570;23.676;2022-10-31T02:20:11;3.65;;;2.70;;
10957;SDS011;5531;42.570;23.676;2022-10-31T02:22:53;3.47;;;2.67;;
10957;SDS011;5531;42.570;23.676;2022-10-31T02:25:49;2.70;;;2.45;;
10957;SDS011;5531;42.570;23.676;2022-10-31T02:28:41;4.03;;;2.67;;
10957;SDS011;5531;42.570;23.676;2022-10-31T02:31:29;4.05;;;2.58;;
10957;SDS011;5531;42.570;23.676;2022-10-31T02:34:05;3.85;;;2.65;;
10957;SDS011;5531;42.570;23.676;2022-10-31T02:36:48;4.85;;;2.58;;
10957;SDS011;5531;42.570;23.676;2022-10-31T02:39:28;2.85;;;2.45;;
10957;SDS011;5531;42.570;23.676;2022-10-31T02:42:06;3.47;;;2.42;;
10957;SDS011;5531;42.570;23.676;2022-10-31T02:44:42;3.35;;;2.30;;
10957;SDS011;5531;42.570;23.676;2022-10-31T02:47:21;4.35;;;2.65;;
10957;SDS011;5531;42.570;23.676;2022-10-31T02:49:55;5.00;;;2.70;;
10957;SDS011;5531;42.570;23.676;2022-10-31T02:52:30;3.50;;;2.63;;
10957;SDS011;5531;42.570;23.676;2022-10-31T02:55:08;4.28;;;2.45;;
10957;SDS011;5531;42.570;23.676;2022-10-31T02:57:39;2.88;;;2.35;;
10957;SDS011;5531;42.570;23.676;2022-10-31T03:00:11;3.30;;;2.30;;
10957;SDS011;5531;42.570;23.676;2022-10-31T03:02:46;4.00;;;2.53;;
10957;SDS011;5531;42.570;23.676;2022-10-31T03:05:34;3.45;;;2.65;;
10957;SDS011;5531;42.570;23.676;2022-10-31T03:08:14;3.38;;;2.50;;
10957;SDS011;5531;42.570;23.676;2022-10-31T03:10:52;2.55;;;2.15;;
10957;SDS011;5531;42.570;23.676;2022-10-31T03:13:28;4.05;;;2.30;;
10957;SDS011;5531;42.570;23.676;2022-10-31T03:16:06;5.07;;;2.22;;
10957;SDS011;5531;42.570;23.676;2022-10-31T03:18:43;1.90;;;1.80;;
10957;SDS011;5531;42.570;23.676;2022-10-31T03:21:18;3.75;;;1.90;;
10957;SDS011;5531;42.570;23.676;2022-10-31T03:23:50;3.20;;;2.20;;
10957;SDS011;5531;42.570;23.676;2022-10-31T03:26:22;3.95;;;2.03;;
10957;SDS011;5531;42.570;23.676;2022-10-31T03:28:54;2.47;;;1.92;;
10957;SDS011;5531;42.570;23.676;2022-10-31T03:31:27;3.38;;;2.35;;
10957;SDS011;5531;42.570;23.676;2022-10-31T03:34:04;2.83;;;2.20;;
10957;SDS011;5531;42.570;23.676;2022-10-31T03:36:36;2.45;;;2.08;;
10957;SDS011;5531;42.570;23.676;2022-10-31T03:39:09;2.63;;;2.25;;
10957;SDS011;5531;42.570;23.676;2022-10-31T03:41:44;2.47;;;2.28;;
10957;SDS011;5531;42.570;23.676;2022-10-31T03:44:17;2.67;;;2.22;;
10957;SDS011;5531;42.570;23.676;2022-10-31T03:46:49;3.20;;;2.20;;
10957;SDS011;5531;42.570;23.676;2022-10-31T03:49:21;3.70;;;2.38;;
10957;SDS011;5531;42.570;23.676;2022-10-31T03:51:54;3.78;;;2.38;;
10957;SDS011;5531;42.570;23.676;2022-10-31T03:54:29;2.97;;;2.58;;
10957;SDS011;5531;42.570;23.676;2022-10-31T03:57:05;4.35;;;2.92;;
10957;SDS011;5531;42.570;23.676;2022-10-31T03:59:41;3.47;;;2.40;;
10957;SDS011;5531;42.570;23.676;2022-10-31T04:02:13;3.58;;;2.53;;
10957;SDS011;5531;42.570;23.676;2022-10-31T04:04:47;3.83;;;2.90;;
10957;SDS011;5531;42.570;23.676;2022-10-31T04:07:18;4.07;;;2.92;;
10957;SDS011;5531;42.570;23.676;2022-10-31T04:09:50;2.70;;;2.45;;
10957;SDS011;5531;42.570;23.676;2022-10-31T04:12:21;4.07;;;2.72;;
10957;SDS011;5531;42.570;23.676;2022-10-31T04:14:53;3.10;;;2.55;;
10957;SDS011;5531;42.570;23.676;2022-10-31T04:17:24;4.18;;;2.58;;
10957;SDS011;5531;42.570;23.676;2022-10-31T04:20:01;3.67;;;2.97;;
10957;SDS011;5531;42.570;23.676;2022-10-31T04:22:30;3.72;;;2.80;;
10957;SDS011;5531;42.570;23.676;2022-10-31T04:24:59;3.25;;;2.35;;
10957;SDS011;5531;42.570;23.676;2022-10-31T04:27:28;3.40;;;2.42;;
10957;SDS011;5531;42.570;23.676;2022-10-31T04:29:57;3.83;;;2.72;;
10957;SDS011;5531;42.570;23.676;2022-10-31T04:32:26;3.63;;;2.78;;
10957;SDS011;5531;42.570;23.676;2022-10-31T04:34:55;3.65;;;2.65;;
10957;SDS011;5531;42.570;23.676;2022-10-31T04:37:27;3.17;;;2.80;;
10957;SDS011;5531;42.570;23.676;2022-10-31T04:39:56;2.83;;;2.50;;
10957;SDS011;5531;42.570;23.676;2022-10-31T04:42:26;3.75;;;2.67;;
10957;SDS011;5531;42.570;23.676;2022-10-31T04:44:57;3.35;;;2.72;;
10957;SDS011;5531;42.570;23.676;2022-10-31T04:47:26;3.25;;;2.42;;
10957;SDS011;5531;42.570;23.676;2022-10-31T04:49:55;4.05;;;2.75;;
10957;SDS011;5531;42.570;23.676;2022-10-31T04:52:27;4.53;;;3.00;;
10957;SDS011;5531;42.570;23.676;2022-10-31T04:54:56;4.15;;;2.72;;
10957;SDS011;5531;42.570;23.676;2022-10-31T04:57:25;5.25;;;3.00;;
10957;SDS011;5531;42.570;23.676;2022-10-31T04:59:54;2.97;;;2.67;;
10957;SDS011;5531;42.570;23.676;2022-10-31T05:02:23;3.55;;;2.78;;
10957;SDS011;5531;42.570;23.676;2022-10-31T05:04:52;3.70;;;3.00;;
10957;SDS011;5531;42.570;23.676;2022-10-31T05:07:21;3.10;;;2.70;;
10957;SDS011;5531;42.570;23.676;2022-10-31T05:09:53;3.15;;;2.78;;
10957;SDS011;5531;42.570;23.676;2022-10-31T05:12:22;3.20;;;2.88;;
10957;SDS011;5531;42.570;23.676;2022-10-31T05:14:51;3.83;;;3.05;;
10957;SDS011;5531;42.570;23.676;2022-10-31T05:17:20;3.25;;;2.80;;
10957;SDS011;5531;42.570;23.676;2022-10-31T05:19:49;3.22;;;2.80;;
10957;SDS011;5531;42.570;23.676;2022-10-31T05:22:18;3.15;;;2.80;;
10957;SDS011;5531;42.570;23.676;2022-10-31T05:24:47;3.15;;;2.85;;
10957;SDS011;5531;42.570;23.676;2022-10-31T05:27:18;4.63;;;3.13;;
10957;SDS011;5531;42.570;23.676;2022-10-31T05:29:47;3.65;;;3.13;;
10957;SDS011;5531;42.570;23.676;2022-10-31T05:32:16;4.28;;;2.80;;
10957;SDS011;5531;42.570;23.676;2022-10-31T05:34:46;3.90;;;2.60;;
10957;SDS011;5531;42.570;23.676;2022-10-31T05:37:14;4.72;;;2.95;;
10957;SDS011;5531;42.570;23.676;2022-10-31T05:39:44;3.87;;;3.17;;
10957;SDS011;5531;42.570;23.676;2022-10-31T05:42:13;3.92;;;2.90;;
10957;SDS011;5531;42.570;23.676;2022-10-31T05:44:44;3.90;;;2.92;;
10957;SDS011;5531;42.570;23.676;2022-10-31T05:47:13;3.33;;;2.72;;
10957;SDS011;5531;42.570;23.676;2022-10-31T05:49:42;4.55;;;2.65;;
10957;SDS011;5531;42.570;23.676;2022-10-31T05:52:12;4.97;;;2.85;;
10957;SDS011;5531;42.570;23.676;2022-10-31T05:54:41;5.35;;;2.70;;
10957;SDS011;5531;42.570;23.676;2022-10-31T05:57:10;4.45;;;3.10;;
10957;SDS011;5531;42.570;23.676;2022-10-31T05:59:39;5.03;;;3.13;;
10957;SDS011;5531;42.570;23.676;2022-10-31T06:02:11;3.50;;;2.70;;
10957;SDS011;5531;42.570;23.676;2022-10-31T06:04:40;4.07;;;2.85;;
10957;SDS011;5531;42.570;23.676;2022-10-31T06:07:09;3.38;;;2.90;;
10957;SDS011;5531;42.570;23.676;2022-10-31T06:09:38;4.20;;;3.00;;
10957;SDS011;5531;42.570;23.676;2022-10-31T06:12:07;5.00;;;3.17;;
10957;SDS011;5531;42.570;23.676;2022-10-31T06:14:36;4.18;;;3.20;;
10957;SDS011;5531;42.570;23.676;2022-10-31T06:17:05;4.68;;;2.78;;
10957;SDS011;5531;42.570;23.676;2022-10-31T06:19:36;3.97;;;3.20;;
10957;SDS011;5531;42.570;23.676;2022-10-31T06:22:05;4.85;;;3.20;;
10957;SDS011;5531;42.570;23.676;2022-10-31T06:24:36;4.47;;;3.20;;
10957;SDS011;5531;42.570;23.676;2022-10-31T06:27:06;4.55;;;3.10;;
10957;SDS011;5531;42.570;23.676;2022-10-31T06:29:34;4.28;;;3.00;;
10957;SDS011;5531;42.570;23.676;2022-10-31T06:32:04;4.72;;;3.30;;
10957;SDS011;5531;42.570;23.676;2022-10-31T06:34:35;3.47;;;2.97;;
10957;SDS011;5531;42.570;23.676;2022-10-31T06:37:05;4.35;;;3.17;;
10957;SDS011;5531;42.570;23.676;2022-10-31T06:39:34;4.18;;;3.17;;
10957;SDS011;5531;42.570;23.676;2022-10-31T06:42:04;4.85;;;3.47;;
10957;SDS011;5531;42.570;23.676;2022-10-31T06:44:33;7.28;;;4.35;;
10957;SDS011;5531;42.570;23.676;2022-10-31T06:47:02;5.82;;;4.20;;
10957;SDS011;5531;42.570;23.676;2022-10-31T06:49:31;5.32;;;3.90;;
10957;SDS011;5531;42.570;23.676;2022-10-31T06:52:02;11.20;;;6.45;;
10957;SDS011;5531;42.570;23.676;2022-10-31T06:54:33;9.35;;;5.72;;
10957;SDS011;5531;42.570;23.676;2022-10-31T06:57:02;5.97;;;3.70;;
10957;SDS011;5531;42.570;23.676;2022-10-31T06:59:31;5.60;;;3.72;;
10957;SDS011;5531;42.570;23.676;2022-10-31T07:02:00;6.32;;;3.63;;
10957;SDS011;5531;42.570;23.676;2022-10-31T07:04:29;6.18;;;4.00;;
10957;SDS011;5531;42.570;23.676;2022-10-31T07:06:58;4.95;;;3.72;;
10957;SDS011;5531;42.570;23.676;2022-10-31T07:09:29;4.63;;;3.67;;
10957;SDS011;5531;42.570;23.676;2022-10-31T07:11:58;4.80;;;3.50;;
10957;SDS011;5531;42.570;23.676;2022-10-31T07:14:27;5.97;;;3.53;;
10957;SDS011;5531;42.570;23.676;2022-10-31T07:16:56;5.28;;;3.47;;
10957;SDS011;5531;42.570;23.676;2022-10-31T07:19:25;4.80;;;3.72;;
10957;SDS011;5531;42.570;23.676;2022-10-31T07:21:54;4.32;;;3.38;;
10957;SDS011;5531;42.570;23.676;2022-10-31T07:24:24;4.30;;;3.22;;
10957;SDS011;5531;42.570;23.676;2022-10-31T07:26:57;4.75;;;3.42;;
10957;SDS011;5531;42.570;23.676;2022-10-31T07:29:26;6.53;;;3.60;;
10957;SDS011;5531;42.570;23.676;2022-10-31T07:31:54;6.60;;;3.63;;
10957;SDS011;5531;42.570;23.676;2022-10-31T07:34:23;6.32;;;3.83;;
10957;SDS011;5531;42.570;23.676;2022-10-31T07:36:52;6.90;;;3.80;;
10957;SDS011;5531;42.570;23.676;2022-10-31T07:39:21;3.72;;;3.42;;
10957;SDS011;5531;42.570;23.676;2022-10-31T07:41:50;5.20;;;3.70;;
10957;SDS011;5531;42.570;23.676;2022-10-31T07:44:22;4.70;;;3.80;;
10957;SDS011;5531;42.570;23.676;2022-10-31T07:46:51;5.50;;;3.80;;
10957;SDS011;5531;42.570;23.676;2022-10-31T07:49:20;4.60;;;4.03;;
10957;SDS011;5531;42.570;23.676;2022-10-31T07:51:50;4.38;;;3.70;;
10957;SDS011;5531;42.570;23.676;2022-10-31T07:54:19;8.00;;;4.90;;
10957;SDS011;5531;42.570;23.676;2022-10-31T07:56:48;6.88;;;4.25;;
10957;SDS011;5531;42.570;23.676;2022-10-31T07:59:17;7.22;;;4.32;;
10957;SDS011;5531;42.570;23.676;2022-10-31T08:01:49;5.60;;;4.28;;
10957;SDS011;5531;42.570;23.676;2022-10-31T08:04:18;5.82;;;4.00;;
10957;SDS011;5531;42.570;23.676;2022-10-31T08:06:47;5.45;;;4.10;;
10957;SDS011;5531;42.570;23.676;2022-10-31T08:09:16;5.57;;;3.90;;
10957;SDS011;5531;42.570;23.676;2022-10-31T08:11:45;4.97;;;3.90;;
10957;SDS011;5531;42.570;23.676;2022-10-31T08:14:14;5.35;;;3.75;;
10957;SDS011;5531;42.570;23.676;2022-10-31T08:16:43;5.22;;;3.80;;
10957;SDS011;5531;42.570;23.676;2022-10-31T08:19:15;4.95;;;4.10;;
10957;SDS011;5531;42.570;23.676;2022-10-31T08:21:44;4.35;;;3.95;;
10957;SDS011;5531;42.570;23.676;2022-10-31T08:24:13;7.47;;;4.18;;
10957;SDS011;5531;42.570;23.676;2022-10-31T08:26:42;6.13;;;4.03;;
10957;SDS011;5531;42.570;23.676;2022-10-31T08:29:11;4.43;;;3.95;;
10957;SDS011;5531;42.570;23.676;2022-10-31T08:31:41;6.05;;;4.45;;
10957;SDS011;5531;42.570;23.676;2022-10-31T08:34:10;6.63;;;4.45;;
10957;SDS011;5531;42.570;23.676;2022-10-31T08:36:42;4.65;;;4.10;;
10957;SDS011;5531;42.570;23.676;2022-10-31T08:39:11;6.00;;;4.35;;
10957;SDS011;5531;42.570;23.676;2022-10-31T08:41:40;4.70;;;4.10;;
10957;SDS011;5531;42.570;23.676;2022-10-31T08:44:09;7.45;;;5.32;;
10957;SDS011;5531;42.570;23.676;2022-10-31T08:46:38;5.75;;;4.35;;
10957;SDS011;5531;42.570;23.676;2022-10-31T08:49:07;4.90;;;4.40;;
10957;SDS011;5531;42.570;23.676;2022-10-31T08:51:36;7.93;;;5.07;;
10957;SDS011;5531;42.570;23.676;2022-10-31T08:54:08;8.45;;;5.07;;
10957;SDS011;5531;42.570;23.676;2022-10-31T08:56:37;5.85;;;4.35;;
10957;SDS011;5531;42.570;23.676;2022-10-31T08:59:06;6.50;;;4.65;;
10957;SDS011;5531;42.570;23.676;2022-10-31T09:01:35;6.38;;;4.63;;
10957;SDS011;5531;42.570;23.676;2022-10-31T09:04:04;5.72;;;4.80;;
10957;SDS011;5531;42.570;23.676;2022-10-31T09:06:33;7.03;;;5.00;;
10957;SDS011;5531;42.570;23.676;2022-10-31T09:09:02;6.10;;;4.93;;
10957;SDS011;5531;42.570;23.676;2022-10-31T09:11:33;6.00;;;5.03;;
10957;SDS011;5531;42.570;23.676;2022-10-31T09:14:02;5.50;;;4.80;;
10957;SDS011;5531;42.570;23.676;2022-10-31T09:16:31;7.95;;;5.15;;
10957;SDS011;5531;42.570;23.676;2022-10-31T09:19:01;6.30;;;5.05;;
10957;SDS011;5531;42.570;23.676;2022-10-31T09:21:30;8.98;;;5.75;;
10957;SDS011;5531;42.570;23.676;2022-10-31T09:23:59;8.18;;;5.38;;
10957;SDS011;5531;42.570;23.676;2022-10-31T09:26:28;6.60;;;5.25;;
10957;SDS011;5531;42.570;23.676;2022-10-31T09:28:59;7.50;;;5.13;;
10957;SDS011;5531;42.570;23.676;2022-10-31T09:31:28;7.75;;;5.35;;
10957;SDS011;5531;42.570;23.676;2022-10-31T09:33:57;6.60;;;5.05;;
10957;SDS011;5531;42.570;23.676;2022-10-31T09:36:26;6.47;;;4.72;;
10957;SDS011;5531;42.570;23.676;2022-10-31T09:38:56;6.60;;;5.40;;
10957;SDS011;5531;42.570;23.676;2022-10-31T09:41:27;5.75;;;4.60;;
10957;SDS011;5531;42.570;23.676;2022-10-31T09:44:07;6.47;;;4.63;;
10957;SDS011;5531;42.570;23.676;2022-10-31T09:46:47;6.80;;;4.60;;
10957;SDS011;5531;42.570;23.676;2022-10-31T09:49:29;6.13;;;4.85;;
10957;SDS011;5531;42.570;23.676;2022-10-31T09:52:09;8.57;;;4.80;;
10957;SDS011;5531;42.570;23.676;2022-10-31T09:54:44;5.85;;;4.60;;
10957;SDS011;5531;42.570;23.676;2022-10-31T09:57:22;7.40;;;4.90;;
10957;SDS011;5531;42.570;23.676;2022-10-31T09:59:58;6.65;;;4.63;;
10957;SDS011;5531;42.570;23.676;2022-10-31T10:02:29;7.25;;;5.00;;
10957;SDS011;5531;42.570;23.676;2022-10-31T10:05:02;8.20;;;4.32;;
10957;SDS011;5531;42.570;23.676;2022-10-31T10:07:35;5.30;;;4.25;;
10957;SDS011;5531;42.570;23.676;2022-10-31T10:10:13;5.68;;;4.60;;
10957;SDS011;5531;42.570;23.676;2022-10-31T10:16:03;6.38;;;4.47;;
10957;SDS011;5531;42.570;23.676;2022-10-31T10:18:42;6.75;;;4.28;;
10957;SDS011;5531;42.570;23.676;2022-10-31T10:21:25;7.38;;;4.75;;
10957;SDS011;5531;42.570;23.676;2022-10-31T10:24:07;6.45;;;4.05;;
10957;SDS011;5531;42.570;23.676;2022-10-31T10:26:48;5.43;;;3.85;;
10957;SDS011;5531;42.570;23.676;2022-10-31T10:29:29;5.47;;;4.03;;
10957;SDS011;5531;42.570;23.676;2022-10-31T10:32:08;6.75;;;3.95;;
10957;SDS011;5531;42.570;23.676;2022-10-31T10:34:43;5.30;;;4.00;;
10957;SDS011;5531;42.570;23.676;2022-10-31T10:37:22;5.72;;;3.90;;
10957;SDS011;5531;42.570;23.676;2022-10-31T10:39:56;4.95;;;3.75;;
10957;SDS011;5531;42.570;23.676;2022-10-31T10:42:35;4.97;;;3.80;;
10957;SDS011;5531;42.570;23.676;2022-10-31T10:45:18;4.57;;;3.85;;
10957;SDS011;5531;42.570;23.676;2022-10-31T10:48:05;4.90;;;3.80;;
10957;SDS011;5531;42.570;23.676;2022-10-31T10:50:39;4.60;;;3.53;;
10957;SDS011;5531;42.570;23.676;2022-10-31T10:53:16;5.15;;;3.67;;
10957;SDS011;5531;42.570;23.676;2022-10-31T10:56:03;5.32;;;3.72;;
10957;SDS011;5531;42.570;23.676;2022-10-31T10:58:40;5.00;;;3.70;;
10957;SDS011;5531;42.570;23.676;2022-10-31T11:01:11;4.47;;;3.60;;
10957;SDS011;5531;42.570;23.676;2022-10-31T11:03:43;4.47;;;3.45;;
10957;SDS011;5531;42.570;23.676;2022-10-31T11:06:16;4.57;;;3.70;;
10957;SDS011;5531;42.570;23.676;2022-10-31T11:08:51;5.53;;;3.67;;
10957;SDS011;5531;42.570;23.676;2022-10-31T11:11:24;5.20;;;3.63;;
10957;SDS011;5531;42.570;23.676;2022-10-31T11:13:58;6.32;;;3.63;;
10957;SDS011;5531;42.570;23.676;2022-10-31T11:16:31;4.32;;;3.42;;
10957;SDS011;5531;42.570;23.676;2022-10-31T11:19:13;4.00;;;3.60;;
10957;SDS011;5531;42.570;23.676;2022-10-31T11:21:46;6.03;;;4.10;;
10957;SDS011;5531;42.570;23.676;2022-10-31T11:24:16;5.70;;;3.83;;
10957;SDS011;5531;42.570;23.676;2022-10-31T11:26:48;4.78;;;3.53;;
10957;SDS011;5531;42.570;23.676;2022-10-31T11:29:20;5.07;;;3.90;;
10957;SDS011;5531;42.570;23.676;2022-10-31T11:31:51;4.45;;;4.05;;
10957;SDS011;5531;42.570;23.676;2022-10-31T11:34:27;3.97;;;3.58;;
10957;SDS011;5531;42.570;23.676;2022-10-31T11:37:01;4.95;;;3.50;;
10957;SDS011;5531;42.570;23.676;2022-10-31T11:39:40;4.38;;;3.70;;
10957;SDS011;5531;42.570;23.676;2022-10-31T11:42:11;7.10;;;4.65;;
10957;SDS011;5531;42.570;23.676;2022-10-31T11:44:42;6.82;;;4.53;;
10957;SDS011;5531;42.570;23.676;2022-10-31T11:47:12;7.32;;;4.50;;
10957;SDS011;5531;42.570;23.676;2022-10-31T11:49:46;4.68;;;3.60;;
10957;SDS011;5531;42.570;23.676;2022-10-31T11:52:17;6.93;;;4.10;;
10957;SDS011;5531;42.570;23.676;2022-10-31T11:54:49;6.00;;;3.58;;
10957;SDS011;5531;42.570;23.676;2022-10-31T11:57:22;4.15;;;3.47;;
10957;SDS011;5531;42.570;23.676;2022-10-31T11:59:53;4.05;;;2.95;;
10957;SDS011;5531;42.570;23.676;2022-10-31T12:02:23;4.88;;;2.97;;
10957;SDS011;5531;42.570;23.676;2022-10-31T12:05:00;4.00;;;2.78;;
10957;SDS011;5531;42.570;23.676;2022-10-31T12:07:35;2.85;;;2.45;;
10957;SDS011;5531;42.570;23.676;2022-10-31T12:10:04;3.40;;;2.17;;
10957;SDS011;5531;42.570;23.676;2022-10-31T12:12:42;2.90;;;2.25;;
10957;SDS011;5531;42.570;23.676;2022-10-31T12:15:27;4.50;;;2.55;;
10957;SDS011;5531;42.570;23.676;2022-10-31T12:21:12;2.70;;;2.30;;
10957;SDS011;5531;42.570;23.676;2022-10-31T12:23:53;3.08;;;2.20;;
10957;SDS011;5531;42.570;23.676;2022-10-31T12:26:32;2.65;;;1.95;;
10957;SDS011;5531;42.570;23.676;2022-10-31T12:29:13;3.00;;;2.47;;
10957;SDS011;5531;42.570;23.676;2022-10-31T12:31:57;4.65;;;2.40;;
10957;SDS011;5531;42.570;23.676;2022-10-31T12:34:45;3.40;;;2.40;;
10957;SDS011;5531;42.570;23.676;2022-10-31T12:37:31;2.92;;;2.10;;
10957;SDS011;5531;42.570;23.676;2022-10-31T12:43:09;3.20;;;2.22;;
10957;SDS011;5531;42.570;23.676;2022-10-31T12:45:51;3.35;;;2.25;;
10957;SDS011;5531;42.570;23.676;2022-10-31T12:48:34;6.70;;;2.80;;
10957;SDS011;5531;42.570;23.676;2022-10-31T12:51:15;2.85;;;2.13;;
10957;SDS011;5531;42.570;23.676;2022-10-31T12:53:55;2.80;;;2.30;;
10957;SDS011;5531;42.570;23.676;2022-10-31T12:56:39;2.50;;;2.30;;
10957;SDS011;5531;42.570;23.676;2022-10-31T12:59:17;2.33;;;1.90;;
10957;SDS011;5531;42.570;23.676;2022-10-31T13:01:55;3.30;;;2.00;;
10957;SDS011;5531;42.570;23.676;2022-10-31T13:04:33;2.42;;;1.83;;
10957;SDS011;5531;42.570;23.676;2022-10-31T13:07:09;3.65;;;1.80;;
10957;SDS011;5531;42.570;23.676;2022-10-31T13:09:46;2.70;;;2.10;;
10957;SDS011;5531;42.570;23.676;2022-10-31T13:12:22;3.00;;;1.90;;
10957;SDS011;5531;42.570;23.676;2022-10-31T13:14:53;2.88;;;2.13;;
10957;SDS011;5531;42.570;23.676;2022-10-31T13:17:26;3.03;;;2.05;;
10957;SDS011;5531;42.570;23.676;2022-10-31T13:20:02;3.05;;;2.00;;
10957;SDS011;5531;42.570;23.676;2022-10-31T13:22:45;3.53;;;2.00;;
10957;SDS011;5531;42.570;23.676;2022-10-31T13:25:21;3.63;;;2.05;;
10957;SDS011;5531;42.570;23.676;2022-10-31T13:27:54;2.92;;;2.10;;
10957;SDS011;5531;42.570;23.676;2022-10-31T13:30:27;3.53;;;2.33;;
10957;SDS011;5531;42.570;23.676;2022-10-31T13:33:01;2.83;;;2.03;;
10957;SDS011;5531;42.570;23.676;2022-10-31T13:35:37;3.40;;;2.05;;
10957;SDS011;5531;42.570;23.676;2022-10-31T13:38:14;3.47;;;1.95;;
10957;SDS011;5531;42.570;23.676;2022-10-31T13:40:54;3.53;;;2.15;;
10957;SDS011;5531;42.570;23.676;2022-10-31T13:43:28;3.65;;;2.22;;
10957;SDS011;5531;42.570;23.676;2022-10-31T13:48:52;2.88;;;2.15;;
10957;SDS011;5531;42.570;23.676;2022-10-31T13:51:24;2.80;;;2.17;;
10957;SDS011;5531;42.570;23.676;2022-10-31T13:53:59;2.03;;;1.80;;
10957;SDS011;5531;42.570;23.676;2022-10-31T13:56:32;2.78;;;1.60;;
10957;SDS011;5531;42.570;23.676;2022-10-31T13:59:15;1.67;;;1.27;;
10957;SDS011;5531;42.570;23.676;2022-10-31T14:01:48;1.95;;;1.25;;
10957;SDS011;5531;42.570;23.676;2022-10-31T14:04:21;2.45;;;1.30;;
10957;SDS011;5531;42.570;23.676;2022-10-31T14:06:53;2.67;;;1.38;;
10957;SDS011;5531;42.570;23.676;2022-10-31T14:09:27;1.92;;;1.33;;
10957;SDS011;5531;42.570;23.676;2022-10-31T14:12:04;3.25;;;1.30;;
10957;SDS011;5531;42.570;23.676;2022-10-31T14:14:45;2.20;;;1.17;;
10957;SDS011;5531;42.570;23.676;2022-10-31T14:17:19;2.22;;;1.33;;
10957;SDS011;5531;42.570;23.676;2022-10-31T14:20:00;1.17;;;1.08;;
10957;SDS011;5531;42.570;23.676;2022-10-31T14:22:44;1.35;;;1.13;;
10957;SDS011;5531;42.570;23.676;2022-10-31T14:25:27;2.40;;;1.15;;
10957;SDS011;5531;42.570;23.676;2022-10-31T14:28:01;1.38;;;1.27;;
10957;SDS011;5531;42.570;23.676;2022-10-31T14:30:51;1.60;;;1.40;;
10957;SDS011;5531;42.570;23.676;2022-10-31T14:33:22;1.67;;;1.20;;
10957;SDS011;5531;42.570;23.676;2022-10-31T14:35:53;1.60;;;1.20;;
10957;SDS011;5531;42.570;23.676;2022-10-31T14:38:37;2.38;;;1.35;;
10957;SDS011;5531;42.570;23.676;2022-10-31T14:47:39;2.85;;;1.40;;
10957;SDS011;5531;42.570;23.676;2022-10-31T14:50:20;1.85;;;1.33;;
10957;SDS011;5531;42.570;23.676;2022-10-31T14:52:53;1.48;;;1.38;;
10957;SDS011;5531;42.570;23.676;2022-10-31T14:55:25;1.48;;;1.20;;
10957;SDS011;5531;42.570;23.676;2022-10-31T14:57:56;3.15;;;1.15;;
10957;SDS011;5531;42.570;23.676;2022-10-31T15:00:28;1.67;;;1.27;;
10957;SDS011;5531;42.570;23.676;2022-10-31T15:03:09;1.35;;;1.20;;
10957;SDS011;5531;42.570;23.676;2022-10-31T15:05:45;2.47;;;1.27;;
10957;SDS011;5531;42.570;23.676;2022-10-31T15:08:31;1.65;;;1.35;;
10957;SDS011;5531;42.570;23.676;2022-10-31T15:11:06;1.63;;;1.10;;
10957;SDS011;5531;42.570;23.676;2022-10-31T15:13:43;2.20;;;1.10;;
10957;SDS011;5531;42.570;23.676;2022-10-31T15:16:17;1.40;;;1.30;;
10957;SDS011;5531;42.570;23.676;2022-10-31T15:18:52;2.03;;;1.20;;
10957;SDS011;5531;42.570;23.676;2022-10-31T15:21:23;1.88;;;1.30;;
10957;SDS011;5531;42.570;23.676;2022-10-31T15:23:54;3.75;;;1.15;;
10957;SDS011;5531;42.570;23.676;2022-10-31T15:26:26;2.67;;;1.50;;
10957;SDS011;5531;42.570;23.676;2022-10-31T15:29:00;1.55;;;1.30;;
10957;SDS011;5531;42.570;23.676;2022-10-31T15:31:31;3.70;;;1.20;;
10957;SDS011;5531;42.570;23.676;2022-10-31T15:34:04;1.83;;;1.00;;
10957;SDS011;5531;42.570;23.676;2022-10-31T15:36:35;2.20;;;1.50;;
10957;SDS011;5531;42.570;23.676;2022-10-31T15:39:04;4.78;;;1.40;;
10957;SDS011;5531;42.570;23.676;2022-10-31T15:41:36;2.03;;;1.27;;
10957;SDS011;5531;42.570;23.676;2022-10-31T15:44:18;1.83;;;1.20;;